Potlatch, Idaho
Current Conditions -  °F | °C
As of 5:53 PM on Friday 28 Nov 2014 (Local Time) from KPUW Reporting Station
Light Rain Light Rain  
Wind Chill: 40°   Ceiling: 4100
Heat Index: 47°   Visibility: 10mi
Dew Point: 41°   Wind: 18mph
Humidity: 80%   Direction: 200°SSW
Pressure: 29.39"   Gusts: 24mph
Location:  46.92°N, 116.9°W
Report Text: KPUW 290153Z AUTO 20016G21KT 10SM -RA FEW031 BKN041 BKN065 08/05 A2939 RMK AO2 PK WND 22028/0116 SLP953 P0009 T00830050
Loading
Personal Weather Stations






























Interactive Weather Map New forecast layout! Learn more

10-Day Weather Forecast

Advertisements
Track Severe Weather on mobile